Belle Chasse — WDG2912 — position and weather

sailwx.info

Track history (hours):
 
Tides and Currents Weather Stations Pressure Air Temp Water Temp Dewpoint Dewpoint Depression Visibility Wind Speed Wind Dir Waves Ship Positions

Belle Chasse

Owner: Higman Barge Lines, Inc, Orange, TX. More information available from US FCC via Universal Licensing System and Coast Guard Vessel Documentation Center.

Last reported at 2015-Jul-24 00:21 UTC. Time now 2015-Jul-29 02:43 UTC.
Position N 29°27' W 094°51'.

Length 26 m; draft 3 m.

Type: Towing. MMSI: 367520550.

Date/timePositionNaut miles runAvg speedWind from/ knotsBaromVisibWave heightAir tempDewpointWater temp
2015-Jul-24 00:21N 29°27' W 094°51'7 8.7
2015-Jul-23 23:33N 29°33' W 094°55'8 8.0
2015-Jul-23 22:33N 29°40' W 094°59'6 6.1
2015-Jul-23 21:33N 29°45' W 095°04'2 1.5
2015-Jul-23 20:11N 29°46' W 095°05'0 0.0
2015-Jul-23 19:26N 29°46' W 095°05'0 0.0
2015-Jul-23 18:23N 29°46' W 095°05'0 0.0
2015-Jul-23 17:32N 29°46' W 095°05'0 0.0
2015-Jul-23 15:26N 29°46' W 095°05'0 0.0
2015-Jul-23 14:32N 29°46' W 095°05'0 0.0
2015-Jul-23 13:26N 29°46' W 095°05'0 0.0
2015-Jul-23 12:29N 29°46' W 095°05'0 0.0
2015-Jul-23 09:29N 29°46' W 095°05'0 0.0
2015-Jul-23 08:17N 29°46' W 095°05'0 0.0
2015-Jul-23 06:14N 29°46' W 095°05'2 2.6
2015-Jul-23 05:32N 29°45' W 095°06'5 5.2
2015-Jul-23 04:29N 29°44' W 095°12'5 5.7
2015-Jul-23 03:32N 29°45' W 095°06'2 0.4
2015-Jul-22 23:06N 29°46' W 095°05'2 0.3
2015-Jul-22 16:31N 29°45' W 095°06'1 0.5
2015-Jul-22 15:27N 29°45' W 095°07'0 0.0
2015-Jul-22 11:30N 29°45' W 095°07'0 0.0
2015-Jul-22 10:18N 29°45' W 095°07'0 0.0
2015-Jul-22 09:24N 29°45' W 095°06'1 0.4
2015-Jul-22 06:33N 29°46' W 095°07'1 0.5
2015-Jul-22 04:32N 29°46' W 095°05'0 0.0
2015-Jul-22 03:31N 29°46' W 095°05'1 0.4
2015-Jul-22 01:26N 29°46' W 095°05'2 2.7
2015-Jul-22 00:32N 29°45' W 095°06'0 0.1
2015-Jul-21 23:33N 29°45' W 095°06'2 2.2
2015-Jul-21 22:31N 29°46' W 095°05'0 0.0
2015-Jul-21 21:31N 29°46' W 095°05'0 0.1
2015-Jul-21 20:05N 29°46' W 095°05'1 2.0
2015-Jul-21 19:33N 29°45' W 095°05'4 0.2
2015-Jul-20 15:32N 29°45' W 095°10'4 3.7
2015-Jul-20 14:33N 29°45' W 095°06'1 0.0
2015-Jul-19 18:11N 29°46' W 095°06'1 1.5
2015-Jul-19 17:27N 29°45' W 095°07'0 0.0
2015-Jul-19 16:33N 29°45' W 095°07'1 0.0
2015-Jul-17 18:33N 29°45' W 095°06'1 0.6
2015-Jul-17 17:31N 29°45' W 095°07'0 0.0
2015-Jul-17 16:16N 29°45' W 095°07'2 0.1
2015-Jul-16 16:26N 29°46' W 095°05'1 0.0
2015-Jul-15 16:33N 29°45' W 095°06'2 0.1
2015-Jul-14 13:12N 29°46' W 095°05'0 0.0
2015-Jul-14 11:09N 29°46' W 095°05'  
Track history (hours):
 
Tides and Currents Weather Stations Pressure Air Temp Water Temp Dewpoint Dewpoint Depression Visibility Wind Speed Wind Dir Waves Ship Positions

Belle Chasse

Owner: Higman Barge Lines, Inc, Orange, TX. More information available from US FCC via Universal Licensing System and Coast Guard Vessel Documentation Center.

Last reported at 2015-Jul-24 00:21 UTC. Time now 2015-Jul-29 02:43 UTC.
Position N 29°27' W 094°51'.

Length 26 m; draft 3 m.

Type: Towing. MMSI: 367520550.

Date/timePositionNaut miles runAvg speedWind from/ knotsBaromVisibWave heightAir tempDewpointWater temp
2015-Jul-24 00:21N 29°27' W 094°51'7 8.7
2015-Jul-23 23:33N 29°33' W 094°55'8 8.0
2015-Jul-23 22:33N 29°40' W 094°59'6 6.1
2015-Jul-23 21:33N 29°45' W 095°04'2 1.5
2015-Jul-23 20:11N 29°46' W 095°05'0 0.0
2015-Jul-23 19:26N 29°46' W 095°05'0 0.0
2015-Jul-23 18:23N 29°46' W 095°05'0 0.0
2015-Jul-23 17:32N 29°46' W 095°05'0 0.0
2015-Jul-23 15:26N 29°46' W 095°05'0 0.0
2015-Jul-23 14:32N 29°46' W 095°05'0 0.0
2015-Jul-23 13:26N 29°46' W 095°05'0 0.0
2015-Jul-23 12:29N 29°46' W 095°05'0 0.0
2015-Jul-23 09:29N 29°46' W 095°05'0 0.0
2015-Jul-23 08:17N 29°46' W 095°05'0 0.0
2015-Jul-23 06:14N 29°46' W 095°05'2 2.6
2015-Jul-23 05:32N 29°45' W 095°06'5 5.2
2015-Jul-23 04:29N 29°44' W 095°12'5 5.7
2015-Jul-23 03:32N 29°45' W 095°06'2 0.4
2015-Jul-22 23:06N 29°46' W 095°05'2 0.3
2015-Jul-22 16:31N 29°45' W 095°06'1 0.5
2015-Jul-22 15:27N 29°45' W 095°07'0 0.0
2015-Jul-22 11:30N 29°45' W 095°07'0 0.0
2015-Jul-22 10:18N 29°45' W 095°07'0 0.0
2015-Jul-22 09:24N 29°45' W 095°06'1 0.4
2015-Jul-22 06:33N 29°46' W 095°07'1 0.5
2015-Jul-22 04:32N 29°46' W 095°05'0 0.0
2015-Jul-22 03:31N 29°46' W 095°05'1 0.4
2015-Jul-22 01:26N 29°46' W 095°05'2 2.7
2015-Jul-22 00:32N 29°45' W 095°06'0 0.1
2015-Jul-21 23:33N 29°45' W 095°06'2 2.2
2015-Jul-21 22:31N 29°46' W 095°05'0 0.0
2015-Jul-21 21:31N 29°46' W 095°05'0 0.1
2015-Jul-21 20:05N 29°46' W 095°05'1 2.0
2015-Jul-21 19:33N 29°45' W 095°05'4 0.2
2015-Jul-20 15:32N 29°45' W 095°10'4 3.7
2015-Jul-20 14:33N 29°45' W 095°06'1 0.0
2015-Jul-19 18:11N 29°46' W 095°06'1 1.5
2015-Jul-19 17:27N 29°45' W 095°07'0 0.0
2015-Jul-19 16:33N 29°45' W 095°07'1 0.0
2015-Jul-17 18:33N 29°45' W 095°06'1 0.6
2015-Jul-17 17:31N 29°45' W 095°07'0 0.0
2015-Jul-17 16:16N 29°45' W 095°07'2 0.1
2015-Jul-16 16:26N 29°46' W 095°05'1 0.0
2015-Jul-15 16:33N 29°45' W 095°06'2 0.1
2015-Jul-14 13:12N 29°46' W 095°05'0 0.0
2015-Jul-14 11:09N 29°46' W 095°05'  

Dump ship's entire track history